Aérodrome :
LOGIN :

S'inscrire | Disclaimer

   EN    FR    IT 

 










Légende :    VFR   VFR Marginal   IFR   IFR Intensif   IFR Très Intensif
Visi : 
Plafond : 
>= 8 km
>= 3000ft
5 à 8 km
1000 à 3000 ft
1500m à 5 km
500 à 1000 ft
800 à 1500m
200 à 500 ft
< 800m
< 200 ft
Symboles :   Orages  Brouillard  Fortes neiges  Fortes précipitations  Vent > 20 kt
SIGMETs :   Divers  Orages  Givrage  Turbulence  Onde Orograph.  Cendres Volcan.







- Altitude de l'aérodrome : 1504 ft
- Code IATA : PNA


LEPP - Noain Pamplona

DERNIER METAR :
  • 180736Z 36001KT 0400 R33/0650D R15/0400D FZFG BKN001 M01/M01 Q1025

METARs EXPIRÉS :
  • 180730Z 00000KT 3000 BR BKN002 M00/M00 Q1025
  • 180700Z 00000KT 4000 BR BKN003 00/00 Q1025
  • 180630Z 00000KT 4500 BR BKN003 01/01 Q1025
  • 180600Z 00000KT 4000 BR BKN003 00/00 Q1025
  • 180530Z 00000KT 5000 BR BKN001 01/01 Q1025
  • 180500Z 00000KT 3500 R33/1300D BR VV001 00/00 Q1025

TAF TAF LEPP
Valide du 18 à 03h jusqu'au 19 à 03h UTC


180200Z 1803/1903 VRB05KT 8000 NSC TX11/1815Z TN00/1807Z
TEMPO 1803/1812 1500 BCFG BKN005
PROB40
TEMPO 1803/1810 0350 FG VV001
PROB40
TEMPO 1821/1903 BKN014
Pas de NOTAMs connus pour ce terrain.



MET'MAP, la Météo Aéronautique d'un coup d'oeil ! - Copyright ORBIFLY Décembre 2007 - Disclaimer

ORBIFLY MET'MAP TEAM :

Programmation & Développement : Alexandra Zaïnal
Conception & Développement : Baudouin d'Aumeries
Co-Programmation & Développement : Marc-Olivier Méhu
Soutien technique & logistique : Manuel Goepfert

Contact : metmap@orbifly.com




SOURCES & CREDITS :

   NOAA